createdAt,value
2023-11-07T00:01:09.218Z,98834.64
2023-11-07T00:04:03.722Z,98837.27
2023-11-07T00:06:35.246Z,98836.38
2023-11-07T00:09:08.672Z,98838.33
2023-11-07T00:11:41.937Z,98836.22
2023-11-07T00:14:13.770Z,98835.16
2023-11-07T00:16:45.354Z,98834.80
2023-11-07T00:19:17.210Z,98838.84
2023-11-07T00:21:49.570Z,98840.08
2023-11-07T00:24:21.277Z,98847.64
2023-11-07T00:26:53.364Z,98842.37
2023-11-07T00:29:26.488Z,98847.46
2023-11-07T00:31:58.670Z,98846.23
2023-11-07T00:34:30.505Z,98848.35
2023-11-07T00:37:02.256Z,98847.64
2023-11-07T00:39:34.104Z,98849.05
2023-11-07T00:42:06.934Z,98851.48
2023-11-07T00:44:38.596Z,98852.55
2023-11-07T00:47:10.798Z,98852.39
2023-11-07T00:49:42.609Z,98849.22
2023-11-07T00:52:14.676Z,98854.67
2023-11-07T00:54:46.365Z,98859.23
2023-11-07T00:57:18.033Z,98864.33
2023-11-07T00:59:49.877Z,98865.38
2023-11-07T01:02:21.630Z,98867.67
2023-11-07T01:04:53.476Z,98870.30
2023-11-07T01:07:25.148Z,98872.06
2023-11-07T01:09:57.113Z,98878.91
2023-11-07T01:12:29.223Z,98879.61
2023-11-07T01:15:01.270Z,98882.25
2023-11-07T01:17:33.383Z,98887.34
2023-11-07T01:20:07.672Z,98886.48
2023-11-07T01:22:39.941Z,98891.73
2023-11-07T01:25:12.422Z,98889.96
2023-11-07T01:27:44.049Z,98893.83
2023-11-07T01:30:17.548Z,98891.73
2023-11-07T01:32:51.246Z,98887.16
2023-11-07T01:35:23.232Z,98889.98
2023-11-07T01:37:54.962Z,98892.44
2023-11-07T01:40:27.204Z,98892.61
2023-11-07T01:42:59.216Z,98894.38
2023-11-07T01:45:30.932Z,98894.03
2023-11-07T01:48:02.727Z,98890.70
2023-11-07T01:50:35.184Z,98891.55
2023-11-07T01:53:08.573Z,98889.27
2023-11-07T01:55:43.058Z,98889.46
2023-11-07T01:58:16.712Z,98889.98
2023-11-07T02:00:49.854Z,98890.69
2023-11-07T02:03:22.097Z,98887.71
2023-11-07T02:05:54.135Z,98889.11
2023-11-07T02:08:27.257Z,98894.56
2023-11-07T02:10:59.818Z,98894.23
2023-11-07T02:13:31.584Z,98892.45
2023-11-07T02:16:03.470Z,98894.39
2023-11-07T02:18:35.347Z,98889.82
2023-11-07T02:21:08.057Z,98892.11
2023-11-07T02:23:40.384Z,98898.42
2023-11-07T02:26:12.372Z,98896.33
2023-11-07T02:28:46.151Z,98898.08
2023-11-07T02:31:18.097Z,98895.79
2023-11-07T02:33:50.012Z,98894.03
2023-11-07T02:36:21.878Z,98896.84
2023-11-07T02:38:54.225Z,98896.14
2023-11-07T02:41:27.493Z,98897.02
2023-11-07T02:43:59.251Z,98900.34
2023-11-07T02:46:31.482Z,98894.55
2023-11-07T02:49:05.002Z,98892.27
2023-11-07T02:51:37.091Z,98893.50
2023-11-07T02:54:10.053Z,98892.08
2023-11-07T02:56:43.711Z,98892.58
2023-11-07T02:59:15.526Z,98895.41
2023-11-07T03:01:47.675Z,98893.14
2023-11-07T03:04:19.652Z,98893.84
2023-11-07T03:06:51.379Z,98891.21
2023-11-07T03:09:23.106Z,98889.77
2023-11-07T03:11:54.965Z,98900.48
2023-11-07T03:14:26.815Z,98897.16
2023-11-07T03:16:58.976Z,98900.85
2023-11-07T03:19:30.735Z,98899.95
2023-11-07T03:22:02.561Z,98898.55
2023-11-07T03:24:34.480Z,98906.44
2023-11-07T03:27:06.841Z,98894.11
2023-11-07T03:29:39.109Z,98896.42
2023-11-07T03:32:12.802Z,98895.70
2023-11-07T03:34:44.630Z,98893.77
2023-11-07T03:37:16.493Z,98893.80
2023-11-07T03:39:48.239Z,98896.08
2023-11-07T03:42:19.945Z,98896.41
2023-11-07T03:44:51.627Z,98896.94
2023-11-07T03:47:23.398Z,98900.12
2023-11-07T03:49:55.851Z,98895.16
2023-11-07T03:52:27.742Z,98899.39
2023-11-07T03:54:59.638Z,98898.36
2023-11-07T03:57:31.263Z,98896.77
2023-11-07T04:00:04.726Z,98896.72
2023-11-07T04:02:36.675Z,98902.33
2023-11-07T04:05:11.854Z,98904.92
2023-11-07T04:07:42.379Z,98904.04
2023-11-07T04:10:14.488Z,98908.27
2023-11-07T04:12:46.613Z,98911.91
2023-11-07T04:15:18.720Z,98915.10
2023-11-07T04:17:50.756Z,98911.09
2023-11-07T04:20:24.221Z,98917.05
2023-11-07T04:22:56.189Z,98912.64
2023-11-07T04:25:27.926Z,98913.73
2023-11-07T04:27:59.888Z,98911.80
2023-11-07T04:30:31.707Z,98905.63
2023-11-07T04:33:04.422Z,98907.05
2023-11-07T04:35:36.301Z,98907.40
2023-11-07T04:38:08.354Z,98907.89
2023-11-07T04:40:41.852Z,98905.48
2023-11-07T04:43:14.044Z,98902.67
2023-11-07T04:45:45.815Z,98902.98
2023-11-07T04:48:18.553Z,98902.83
2023-11-07T04:50:50.663Z,98903.41
2023-11-07T04:53:22.612Z,98901.63
2023-11-07T04:55:54.421Z,98897.95
2023-11-07T04:58:26.886Z,98899.52
2023-11-07T05:00:58.603Z,98901.42
2023-11-07T05:03:38.775Z,98897.75
2023-11-07T05:06:13.329Z,98901.32
2023-11-07T05:08:45.116Z,98901.64
2023-11-07T05:11:18.678Z,98903.01
2023-11-07T05:13:50.627Z,98903.39
2023-11-07T05:16:22.335Z,98904.11
2023-11-07T05:18:54.872Z,98909.16
2023-11-07T05:21:26.770Z,98909.51
2023-11-07T05:23:58.608Z,98914.09
2023-11-07T05:26:30.439Z,98914.75
2023-11-07T05:29:02.553Z,98917.10
2023-11-07T05:31:34.288Z,98918.89
2023-11-07T05:34:07.532Z,98915.66
2023-11-07T05:36:39.237Z,98917.27
2023-11-07T05:39:10.969Z,98915.18
2023-11-07T05:41:42.941Z,98918.52
2023-11-07T05:44:15.055Z,98917.27
2023-11-07T05:46:46.920Z,98917.10
2023-11-07T05:49:18.678Z,98916.73
2023-11-07T05:51:50.477Z,98912.86
2023-11-07T05:54:22.633Z,98916.56
2023-11-07T05:56:54.267Z,98920.23
2023-11-07T05:59:27.719Z,98921.58
2023-11-07T06:01:59.301Z,98923.52
2023-11-07T06:04:37.657Z,98921.78
2023-11-07T06:07:11.212Z,98927.91
2023-11-07T06:09:42.671Z,98927.06
2023-11-07T06:12:14.565Z,98928.86
2023-11-07T06:14:46.614Z,98927.05
2023-11-07T06:17:18.808Z,98926.16
2023-11-07T06:19:50.953Z,98928.49
2023-11-07T06:22:22.764Z,98926.35
2023-11-07T06:24:54.799Z,98931.27
2023-11-07T06:27:26.558Z,98932.14
2023-11-07T06:29:59.749Z,98937.77
2023-11-07T06:32:32.002Z,98935.81
2023-11-07T06:35:06.678Z,98939.58
2023-11-07T06:37:38.525Z,98941.45
2023-11-07T06:40:17.306Z,98941.27
2023-11-07T06:42:52.894Z,98936.36
2023-11-07T06:45:25.357Z,98938.86
2023-11-07T06:47:57.005Z,98938.88
2023-11-07T06:50:29.061Z,98941.98
2023-11-07T06:53:00.761Z,98946.23
2023-11-07T06:55:33.970Z,98951.63
2023-11-07T06:58:05.675Z,98952.33
2023-11-07T07:00:40.128Z,98955.50
2023-11-07T07:03:12.671Z,98957.77
2023-11-07T07:05:44.638Z,98961.61
2023-11-07T07:08:16.364Z,98963.92
2023-11-07T07:10:48.214Z,98967.26
2023-11-07T07:13:21.277Z,98963.10
2023-11-07T07:15:53.100Z,98961.91
2023-11-07T07:18:26.302Z,98959.83
2023-11-07T07:20:59.317Z,98963.33
2023-11-07T07:23:34.124Z,98962.27
2023-11-07T07:26:09.714Z,98963.36
2023-11-07T07:28:41.324Z,98964.88
2023-11-07T07:31:18.257Z,98967.20
2023-11-07T07:33:50.379Z,98967.73
2023-11-07T07:36:23.885Z,98963.84
2023-11-07T07:38:55.445Z,98966.20
2023-11-07T07:41:27.011Z,98972.36
2023-11-07T07:43:58.819Z,98969.77
2023-11-07T07:46:33.108Z,98966.79
2023-11-07T07:49:12.197Z,98969.27
2023-11-07T07:51:46.639Z,98976.80
2023-11-07T07:54:36.325Z,98975.91
2023-11-07T07:57:19.232Z,98975.90
2023-11-07T07:59:50.991Z,98979.09
2023-11-07T08:02:22.563Z,98976.82
2023-11-07T08:04:54.287Z,98977.49
2023-11-07T08:07:26.163Z,98980.51
2023-11-07T08:09:57.871Z,98982.46
2023-11-07T08:12:29.557Z,98980.02
2023-11-07T08:15:01.245Z,98979.67
2023-11-07T08:17:33.762Z,98980.01
2023-11-07T08:20:15.585Z,98986.85
2023-11-07T08:22:48.943Z,98987.39
2023-11-07T08:25:22.363Z,98989.88
2023-11-07T08:27:54.713Z,98986.36
2023-11-07T08:30:26.824Z,98993.02
2023-11-07T08:33:01.250Z,98993.86
2023-11-07T08:35:33.587Z,98997.17
2023-11-07T08:38:06.069Z,98998.77
2023-11-07T08:40:38.074Z,99001.43
2023-11-07T08:43:10.546Z,98998.60
2023-11-07T08:45:42.344Z,98994.89
2023-11-07T08:48:14.897Z,98999.28
2023-11-07T08:50:47.151Z,99000.14
2023-11-07T08:53:19.890Z,99001.88
2023-11-07T08:55:53.107Z,99007.86
2023-11-07T08:58:26.962Z,99004.34
2023-11-07T09:00:59.429Z,98999.33
2023-11-07T09:03:31.289Z,99004.66
2023-11-07T09:06:03.230Z,99000.80
2023-11-07T09:08:36.925Z,99005.75
2023-11-07T09:11:09.373Z,99002.25
2023-11-07T09:13:40.983Z,99004.88
2023-11-07T09:16:12.735Z,99009.11
2023-11-07T09:18:44.999Z,99009.81
2023-11-07T09:21:17.896Z,99014.55
2023-11-07T09:23:51.366Z,99017.54
2023-11-07T09:26:24.096Z,99016.48
2023-11-07T09:28:56.176Z,99019.10
2023-11-07T09:31:27.809Z,99020.34
2023-11-07T09:34:00.944Z,99022.98
2023-11-07T09:36:32.749Z,99024.92
2023-11-07T09:39:07.085Z,99027.00
2023-11-07T09:41:40.871Z,99024.23
2023-11-07T09:44:14.424Z,99025.04
2023-11-07T09:46:49.337Z,99024.91
2023-11-07T09:49:21.245Z,99027.04
2023-11-07T09:51:55.829Z,99027.89
2023-11-07T09:54:31.208Z,99024.73
2023-11-07T09:57:07.751Z,99026.98
2023-11-07T09:59:45.439Z,99025.56
2023-11-07T10:02:18.169Z,99025.25
2023-11-07T10:04:54.250Z,99026.16
2023-11-07T10:07:27.504Z,99024.58
2023-11-07T10:10:06.647Z,99022.47
2023-11-07T10:12:43.991Z,99016.14
2023-11-07T10:15:20.274Z,99022.99
2023-11-07T10:18:02.031Z,99025.10
2023-11-07T10:20:35.267Z,99027.39
2023-11-07T10:23:12.670Z,99031.80
2023-11-07T10:25:50.710Z,99031.28
2023-11-07T10:28:23.904Z,99030.92
2023-11-07T10:30:58.618Z,99034.44
2023-11-07T10:33:34.149Z,99033.20
2023-11-07T10:36:07.307Z,99034.79
2023-11-07T10:38:42.049Z,99036.37
2023-11-07T10:41:29.533Z,99034.23
2023-11-07T10:44:17.042Z,99037.22
2023-11-07T10:46:51.477Z,99037.77
2023-11-07T10:49:24.077Z,99040.41
2023-11-07T10:51:57.026Z,99041.08
2023-11-07T10:54:31.781Z,99040.35
2023-11-07T10:57:11.708Z,99041.03
2023-11-07T10:59:48.608Z,99035.34
2023-11-07T11:02:23.639Z,99029.67
2023-11-07T11:04:54.250Z,99031.49
2023-11-07T11:07:26.517Z,99029.36
2023-11-07T11:09:59.521Z,99026.34
2023-11-07T11:12:34.144Z,99021.93
2023-11-07T11:15:10.695Z,99013.96
2023-11-07T11:17:51.096Z,99014.83
2023-11-07T11:20:31.353Z,99014.78
2023-11-07T11:23:15.263Z,99011.20
2023-11-07T11:26:07.120Z,99008.96
2023-11-07T11:28:44.001Z,99007.55
2023-11-07T11:31:21.963Z,99007.00
2023-11-07T11:34:27.659Z,99004.48
2023-11-07T11:37:04.165Z,99000.75
2023-11-07T11:39:51.529Z,99001.66
2023-11-07T11:42:23.056Z,98997.85
2023-11-07T11:48:05.816Z,98995.35
2023-11-07T11:50:38.399Z,98996.58
2023-11-07T11:53:10.520Z,98990.71
2023-11-07T11:56:13.369Z,98996.90
2023-11-07T11:59:04.689Z,98994.70
2023-11-07T12:01:51.741Z,98993.15
2023-11-07T12:04:34.185Z,98991.23
2023-11-07T12:07:26.020Z,98990.61
2023-11-07T12:09:59.160Z,98983.52
2023-11-07T12:12:31.734Z,98974.54
2023-11-07T12:15:04.896Z,98976.05
2023-11-07T12:17:47.554Z,98980.07
2023-11-07T12:20:20.747Z,98976.72
2023-11-07T12:22:52.534Z,98979.34
2023-11-07T12:25:25.707Z,98983.48
2023-11-07T12:28:07.156Z,98976.71
2023-11-07T12:30:40.771Z,98974.62
2023-11-07T12:33:13.422Z,98978.53
2023-11-07T12:35:45.700Z,98973.83
2023-11-07T12:38:19.958Z,98967.09
2023-11-07T12:40:52.180Z,98966.88
2023-11-07T12:43:24.626Z,98959.96
2023-11-07T12:45:56.299Z,98966.77
2023-11-07T12:48:28.864Z,98964.09
2023-11-07T12:51:00.680Z,98965.41
2023-11-07T12:53:32.324Z,98963.52
2023-11-07T12:56:04.731Z,98969.23
2023-11-07T12:58:36.561Z,98967.45
2023-11-07T13:01:09.206Z,98975.64
2023-11-07T13:03:41.765Z,98971.46
2023-11-07T13:06:20.783Z,98972.60
2023-11-07T13:08:52.747Z,98976.52
2023-11-07T13:11:25.681Z,98977.06
2023-11-07T13:13:58.233Z,98977.39
2023-11-07T13:16:29.833Z,98978.53
2023-11-07T13:19:01.849Z,98967.79
2023-11-07T13:21:34.125Z,98973.25
2023-11-07T13:24:06.780Z,98976.77
2023-11-07T13:26:38.528Z,98976.77
2023-11-07T13:29:10.144Z,98974.57
2023-11-07T13:31:42.700Z,98976.59
2023-11-07T13:34:14.696Z,98973.06
2023-11-07T13:36:46.658Z,98969.70
2023-11-07T13:39:24.972Z,98974.86
2023-11-07T13:41:57.190Z,98977.70
2023-11-07T13:44:29.050Z,98981.05
2023-11-07T13:47:00.786Z,98988.13
2023-11-07T13:49:32.489Z,98993.23
2023-11-07T13:52:04.513Z,98990.58
2023-11-07T13:54:36.756Z,98993.20
2023-11-07T13:57:08.903Z,98989.32
2023-11-07T13:59:41.299Z,98988.56
2023-11-07T14:02:13.799Z,98986.78
2023-11-07T14:04:45.774Z,98983.41
2023-11-07T14:07:18.424Z,98988.92
2023-11-07T14:09:50.173Z,98984.91
2023-11-07T14:12:23.313Z,98986.52
2023-11-07T14:14:55.354Z,98993.23
2023-11-07T14:17:27.308Z,98989.20
2023-11-07T14:20:00.927Z,98988.14
2023-11-07T14:22:33.173Z,98986.55
2023-11-07T14:25:05.858Z,98985.30
2023-11-07T14:27:38.347Z,98994.11
2023-11-07T14:30:27.249Z,98994.96
2023-11-07T14:33:07.728Z,98993.52
2023-11-07T14:35:40.545Z,98993.85
2023-11-07T14:38:12.588Z,99000.20
2023-11-07T14:40:46.847Z,99004.59
2023-11-07T14:43:19.693Z,99001.95
2023-11-07T14:45:52.072Z,99001.77
2023-11-07T14:48:24.757Z,99002.27
2023-11-07T14:50:57.460Z,99005.40
2023-11-07T14:53:29.738Z,99007.58
2023-11-07T14:56:01.499Z,99012.51
2023-11-07T14:58:34.543Z,99014.80
2023-11-07T15:01:11.137Z,99015.58
2023-11-07T15:03:43.458Z,99013.29
2023-11-07T15:06:15.990Z,99011.72
2023-11-07T15:08:48.121Z,99014.91
2023-11-07T15:11:20.290Z,99019.48
2023-11-07T15:13:57.094Z,99027.23
2023-11-07T15:16:29.024Z,99030.55
2023-11-07T15:19:01.049Z,99027.21
2023-11-07T15:21:32.984Z,99029.67
2023-11-07T15:24:06.683Z,99031.96
2023-11-07T15:26:38.469Z,99019.63
2023-11-07T15:29:10.374Z,99031.95
2023-11-07T15:31:43.536Z,99037.41
2023-11-07T15:34:15.360Z,99032.67
2023-11-07T15:36:47.600Z,99033.38
2023-11-07T15:39:20.278Z,99031.97
2023-11-07T15:41:52.254Z,99031.98
2023-11-07T15:44:24.419Z,99036.55
2023-11-07T15:46:56.171Z,99035.66
2023-11-07T15:49:28.787Z,99029.86
2023-11-07T15:52:00.877Z,99035.10
2023-11-07T15:54:32.997Z,99035.23
2023-11-07T15:57:04.848Z,99042.43
2023-11-07T15:59:37.061Z,99042.94
2023-11-07T16:02:11.352Z,99047.09
2023-11-07T16:04:43.452Z,99052.36
2023-11-07T16:07:15.049Z,99052.45
2023-11-07T16:09:46.930Z,99048.94
2023-11-07T16:12:18.639Z,99057.58
2023-11-07T16:14:53.294Z,99060.90
2023-11-07T16:17:25.155Z,99058.94
2023-11-07T16:19:57.066Z,99065.11
2023-11-07T16:22:29.817Z,99069.69
2023-11-07T16:25:02.631Z,99071.60
2023-11-07T16:27:34.472Z,99067.61
2023-11-07T16:30:07.039Z,99070.09
2023-11-07T16:32:39.350Z,99070.39
2023-11-07T16:35:12.369Z,99069.87
2023-11-07T16:37:44.329Z,99076.59
2023-11-07T16:40:17.887Z,99080.75
2023-11-07T16:42:53.379Z,99082.02
2023-11-07T16:45:25.440Z,99086.58
2023-11-07T16:47:57.424Z,99088.59
2023-11-07T16:50:29.166Z,99084.73
2023-11-07T16:53:01.507Z,99084.77
2023-11-07T16:55:33.236Z,99086.88
2023-11-07T16:58:07.228Z,99091.59
2023-11-07T17:00:39.053Z,99099.27
2023-11-07T17:03:11.265Z,99099.94
2023-11-07T17:05:43.234Z,99107.53
2023-11-07T17:08:14.849Z,99113.73
2023-11-07T17:10:47.884Z,99121.66
2023-11-07T17:13:20.943Z,99140.09
2023-11-07T17:15:53.282Z,99124.52
2023-11-07T17:18:25.103Z,99115.52
2023-11-07T17:20:56.821Z,99125.86
2023-11-07T17:23:28.690Z,99123.86
2023-11-07T17:26:01.710Z,99124.73
2023-11-07T17:28:33.247Z,99122.66
2023-11-07T17:31:05.319Z,99124.14
2023-11-07T17:33:38.428Z,99129.42
2023-11-07T17:36:12.562Z,99126.38
2023-11-07T17:38:44.393Z,99129.13
2023-11-07T17:41:16.394Z,99128.42
2023-11-07T17:43:48.344Z,99129.08
2023-11-07T17:46:23.093Z,99136.20
2023-11-07T17:48:55.460Z,99134.97
2023-11-07T17:51:27.240Z,99141.27
2023-11-07T17:53:59.759Z,99143.48
2023-11-07T17:56:31.485Z,99144.29
2023-11-07T17:59:03.998Z,99147.73
2023-11-07T18:01:36.649Z,99149.05
2023-11-07T18:04:10.142Z,99147.14
2023-11-07T18:06:44.417Z,99150.11
2023-11-07T18:09:16.619Z,99152.19
2023-11-07T18:11:48.274Z,99148.72
2023-11-07T18:14:23.482Z,99145.94
2023-11-07T18:16:57.641Z,99145.35
2023-11-07T18:19:29.639Z,99153.05
2023-11-07T18:22:02.090Z,99155.38
2023-11-07T18:24:34.391Z,99154.35
2023-11-07T18:27:06.901Z,99156.40
2023-11-07T18:29:38.732Z,99160.59
2023-11-07T18:32:12.732Z,99161.14
2023-11-07T18:34:44.532Z,99163.30
2023-11-07T18:37:16.357Z,99167.73
2023-11-07T18:39:48.240Z,99163.86
2023-11-07T18:42:21.455Z,99162.52
2023-11-07T18:44:53.244Z,99161.45
2023-11-07T18:47:25.098Z,99163.55
2023-11-07T18:50:00.586Z,99166.78
2023-11-07T18:52:34.015Z,99171.96
2023-11-07T18:55:07.218Z,99171.50
2023-11-07T18:57:39.678Z,99166.11
2023-11-07T19:00:14.333Z,99167.33
2023-11-07T19:02:46.235Z,99172.67
2023-11-07T19:05:18.559Z,99177.44
2023-11-07T19:07:50.432Z,99177.60
2023-11-07T19:10:22.678Z,99180.41
2023-11-07T19:12:54.272Z,99176.77
2023-11-07T19:15:26.428Z,99176.31
2023-11-07T19:17:58.236Z,99176.48
2023-11-07T19:20:31.790Z,99181.38
2023-11-07T19:23:03.363Z,99183.15
2023-11-07T19:25:34.980Z,99180.91
2023-11-07T19:28:06.969Z,99182.94
2023-11-07T19:30:38.566Z,99176.98
2023-11-07T19:33:10.992Z,99181.77
2023-11-07T19:35:43.236Z,99182.89
2023-11-07T19:38:15.119Z,99184.02
2023-11-07T19:40:46.937Z,99186.07
2023-11-07T19:43:23.461Z,99184.02
2023-11-07T19:45:58.292Z,99187.11
2023-11-07T19:48:33.815Z,99188.93
2023-11-07T19:51:06.245Z,99189.06
2023-11-07T19:53:37.967Z,99189.97
2023-11-07T19:56:10.796Z,99186.36
2023-11-07T19:58:57.472Z,99184.45
2023-11-07T20:01:32.320Z,99185.16
2023-11-07T20:04:04.624Z,99189.55
2023-11-07T20:06:37.286Z,99186.26
2023-11-07T20:09:09.935Z,99180.54
2023-11-07T20:11:42.033Z,99183.73
2023-11-07T20:14:13.877Z,99187.52
2023-11-07T20:16:46.157Z,99183.20
2023-11-07T20:19:18.145Z,99181.85
2023-11-07T20:21:50.034Z,99186.21
2023-11-07T20:24:21.844Z,99188.95
2023-11-07T20:26:58.155Z,99187.88
2023-11-07T20:29:34.803Z,99189.15
2023-11-07T20:32:14.450Z,99189.16
2023-11-07T20:34:49.476Z,99187.73
2023-11-07T20:37:23.445Z,99189.84
2023-11-07T20:39:55.238Z,99186.11
2023-11-07T20:42:28.940Z,99188.50
2023-11-07T20:45:08.127Z,99184.21
2023-11-07T20:47:45.997Z,99187.91
2023-11-07T20:50:18.228Z,99188.63
2023-11-07T20:52:50.129Z,99185.79
2023-11-07T20:55:21.914Z,99188.15
2023-11-07T20:57:58.812Z,99189.21
2023-11-07T21:00:37.344Z,99190.80
2023-11-07T21:03:09.252Z,99192.83
2023-11-07T21:05:41.778Z,99193.96
2023-11-07T21:08:14.273Z,99195.28
2023-11-07T21:10:46.834Z,99191.41
2023-11-07T21:13:18.707Z,99200.27
2023-11-07T21:15:50.472Z,99199.98
2023-11-07T21:18:22.549Z,99203.18
2023-11-07T21:20:54.677Z,99205.05
2023-11-07T21:23:26.629Z,99203.04
2023-11-07T21:25:58.470Z,99200.31
2023-11-07T21:28:30.496Z,99204.85
2023-11-07T21:31:05.960Z,99210.93
2023-11-07T21:33:39.692Z,99213.28
2023-11-07T21:36:12.209Z,99208.16
2023-11-07T21:38:44.759Z,99210.39
2023-11-07T21:41:16.614Z,99208.71
2023-11-07T21:43:51.543Z,99212.17
2023-11-07T21:46:24.310Z,99215.46
2023-11-07T21:48:56.190Z,99213.91
2023-11-07T21:51:27.934Z,99214.56
2023-11-07T21:54:00.319Z,99210.57
2023-11-07T21:56:31.867Z,99208.81
2023-11-07T21:59:04.241Z,99210.80
2023-11-07T22:01:35.840Z,99215.20
2023-11-07T22:04:08.169Z,99218.05
2023-11-07T22:06:40.114Z,99215.91
2023-11-07T22:09:12.272Z,99215.89
2023-11-07T22:11:44.671Z,99224.42
2023-11-07T22:14:16.499Z,99220.86
2023-11-07T22:16:48.810Z,99220.11
2023-11-07T22:19:20.733Z,99218.66
2023-11-07T22:21:52.825Z,99217.34
2023-11-07T22:24:24.654Z,99219.60
2023-11-07T22:26:56.182Z,99223.13
2023-11-07T22:29:27.956Z,99222.54
2023-11-07T22:31:59.731Z,99226.03
2023-11-07T22:34:31.554Z,99228.54
2023-11-07T22:37:03.242Z,99225.42
2023-11-07T22:39:35.012Z,99225.02
2023-11-07T22:42:07.358Z,99224.95
2023-11-07T22:44:40.980Z,99225.77
2023-11-07T22:47:12.729Z,99220.20
2023-11-07T22:49:44.905Z,99216.66
2023-11-07T22:52:16.653Z,99214.63
2023-11-07T22:54:48.564Z,99218.80
2023-11-07T22:57:20.356Z,99217.27
2023-11-07T22:59:52.854Z,99209.95
2023-11-07T23:02:24.645Z,99211.65
2023-11-07T23:04:56.318Z,99213.98
2023-11-07T23:07:27.740Z,99210.46
2023-11-07T23:09:59.430Z,99215.06
2023-11-07T23:12:31.101Z,99216.45
2023-11-07T23:15:02.763Z,99218.27
2023-11-07T23:17:35.129Z,99221.03
2023-11-07T23:20:08.909Z,99221.36
2023-11-07T23:22:41.442Z,99221.76
2023-11-07T23:25:13.572Z,99217.95
2023-11-07T23:27:46.410Z,99225.69
2023-11-07T23:30:18.477Z,99224.73
2023-11-07T23:32:50.265Z,99226.12
2023-11-07T23:35:23.226Z,99222.20
2023-11-07T23:37:56.662Z,99222.44
2023-11-07T23:40:29.347Z,99223.23
2023-11-07T23:43:01.762Z,99220.17
2023-11-07T23:45:34.207Z,99227.88
2023-11-07T23:48:06.309Z,99225.98
2023-11-07T23:50:38.160Z,99221.91
2023-11-07T23:53:11.088Z,99223.54
2023-11-07T23:55:42.805Z,99220.13
2023-11-07T23:58:14.300Z,99222.22
